Airfield :
LOGIN :

Register | Disclaimer

   EN    FR    IT 

 










Legend :    VFR   Marginal VFR   IFR   Intensive IFR   Very Intensive IFR
Visi :
Ceiling :
>= 8 km
>= 3000ft
5 to 8 km
1000 to 3000 ft
1500m to 5 km
500 to 1000 ft
800 to 1500m
200 to 500 ft
< 800m
< 200 ft
Symbols :   Thunderstorms  Fog  Heavy snow  Heavy precipitations  Wind > 20 kt
SIGMETs :     Misc.  Thunderstorms  Icing  Turbulence  Mountain Waves  Volcanic Ashes






- Airport Elevation : 1470 ft
- IATA code : KLU


LOWK - Klagenfurt

CURRENT METAR :
  • 071320Z VRB02KT 9999 FEW009 BKN180 02/M02 Q1017 NOSIG

EXPIRED METARs :
  • 071250Z VRB01KT 9999 FEW008 BKN180 02/M01 Q1017 NOSIG
  • 071220Z VRB02KT 9999 FEW007 BKN180 02/M01 Q1018 NOSIG
  • 071150Z VRB02KT 9999 FEW007 BKN180 01/M01 Q1018 NOSIG
  • 071120Z 35003KT 310V040 9999 FEW006 BKN100 00/M02 Q1018 NOSIG
  • 071050Z VRB02KT 9999 SCT006 BKN100 M00/M02 Q1018 TEMPO BKN007

TAF TAF LOWK
Valid from the 07 at 12:00 until the 08 at 12:00 UTC


071115Z 0712/0812 VRB02KT 9999 FEW010 SCT070 TX01/0812Z TNM03/0805Z
PROB30
TEMPO 0717/0720 1200 FZBCFG SCT002
TEMPO 0720/0810 6000 SCT002 BKN008
PROB40
TEMPO 0722/0806 0500 FZPRFG BKN002



MET'MAP, your aeronautical weather chart ! - Copyright ORBIFLY December 2007 - Disclaimer

ORBIFLY MET'MAP TEAM :

Programming & Development : Alexandra Zaïnal
Concept & original design : Baudouin d'Aumeries
Assistance for programming : Marc-Olivier Méhu
Technical & hardware support : Manuel Goepfert

Contact : metmap@orbifly.com




SOURCES & CREDITS :

   NOAA